Search for airport 
image banner adimage banner adimage banner ad
image banner ad

00CA - Goldstone /Gts/

Located in Barstow, United States

ICAO - 00CA, IATA -

Data provided by Airmate  

General information

Coordinates: N35°21'18" W116°53'7"
Elevation is 3038 feet MSL.
Magnetic variation is 14° East
View others Airports in California

Operational data

Special qualification required
Current time UTC:
Current local time:
Weather at : KBYS - Bicycle Lake Aaf ( 25 km )
METAR: KBYS 211258Z AUTO 00000KT 9SM CLR 26/01 A2987 RMK AO2 SLP080 T02610014 $
View NOTAMs / SUP AIP / TFR affecting this airport [VIEW]
Communications frequencies: [VIEW]

Runways:

RWY identifierQFULength (ft)Width (ft)SurfaceLDA (ft)
04600080ASPH
22600080ASPH

Airport contact information

Address: Barstow United States

Satellite view of 00CA